createdAt,value
2023-03-16T00:00:14.336Z,-0.27
2023-03-16T00:02:16.873Z,-0.16
2023-03-16T00:04:19.086Z,-0.52
2023-03-16T00:06:23.492Z,-0.43
2023-03-16T00:08:27.360Z,-0.18
2023-03-16T00:10:30.041Z,-0.37
2023-03-16T00:12:35.171Z,-0.29
2023-03-16T00:14:37.437Z,-0.33
2023-03-16T00:16:39.908Z,-0.21
2023-03-16T00:18:43.854Z,-0.18
2023-03-16T00:20:50.974Z,-0.41
2023-03-16T00:22:53.496Z,-0.72
2023-03-16T00:24:56.257Z,-0.35
2023-03-16T00:26:58.498Z,-0.23
2023-03-16T00:29:02.000Z,-0.10
2023-03-16T00:31:06.191Z,-0.38
2023-03-16T00:33:11.518Z,-0.44
2023-03-16T00:35:13.881Z,-0.60
2023-03-16T00:37:18.067Z,-0.54
2023-03-16T00:39:23.039Z,-0.67
2023-03-16T00:41:25.924Z,-0.33
2023-03-16T00:43:28.481Z,-0.80
2023-03-16T00:45:30.804Z,-0.58
2023-03-16T00:47:35.901Z,-0.88
2023-03-16T00:49:38.252Z,-0.66
2023-03-16T00:51:46.602Z,-0.39
2023-03-16T00:53:50.318Z,-0.90
2023-03-16T00:55:53.745Z,-0.82
2023-03-16T00:57:56.424Z,-0.78
2023-03-16T00:59:59.603Z,-0.97
2023-03-16T01:02:03.020Z,-0.73
2023-03-16T01:04:05.642Z,-0.96
2023-03-16T01:06:15.544Z,-0.98
2023-03-16T01:08:18.415Z,-0.78
2023-03-16T01:10:21.373Z,-1.09
2023-03-16T01:12:24.343Z,-0.80
2023-03-16T01:14:27.237Z,-0.72
2023-03-16T01:16:29.977Z,-0.88
2023-03-16T01:18:35.096Z,-0.85
2023-03-16T01:20:37.514Z,-0.91
2023-03-16T01:22:42.596Z,-0.76
2023-03-16T01:24:48.404Z,-0.98
2023-03-16T01:26:50.529Z,-1.03
2023-03-16T01:28:53.044Z,-0.93
2023-03-16T01:30:59.996Z,-1.11
2023-03-16T01:33:02.548Z,-1.13
2023-03-16T01:35:05.340Z,-1.04
2023-03-16T01:37:07.975Z,-0.51
2023-03-16T01:39:31.135Z,-0.89
2023-03-16T01:41:33.652Z,-1.15
2023-03-16T01:43:38.422Z,-0.75
2023-03-16T01:46:05.955Z,-0.53
2023-03-16T01:48:15.947Z,-0.84
2023-03-16T01:50:18.472Z,-0.78
2023-03-16T01:52:28.289Z,-1.06
2023-03-16T01:54:32.820Z,-0.90
2023-03-16T01:56:44.425Z,-1.08
2023-03-16T01:58:47.723Z,-1.00
2023-03-16T02:00:50.430Z,-1.07
2023-03-16T02:03:05.453Z,-1.02
2023-03-16T02:05:23.704Z,-0.94
2023-03-16T02:07:29.699Z,-0.71
2023-03-16T02:09:35.235Z,-0.59
2023-03-16T02:11:38.679Z,-0.79
2023-03-16T02:13:47.117Z,-0.64
2023-03-16T02:15:49.848Z,-0.83
2023-03-16T02:17:53.582Z,-0.66
2023-03-16T02:20:12.028Z,-0.48
2023-03-16T02:22:15.362Z,-1.22
2023-03-16T02:24:18.080Z,-0.96
2023-03-16T02:26:45.232Z,-1.13
2023-03-16T02:29:19.270Z,-0.45
2023-03-16T02:31:24.440Z,-0.80
2023-03-16T02:33:27.225Z,-0.89
2023-03-16T02:35:30.276Z,-0.72
2023-03-16T02:37:35.923Z,-0.69
2023-03-16T02:39:38.897Z,-0.82
2023-03-16T02:41:42.554Z,-0.84
2023-03-16T02:43:52.857Z,-0.84
2023-03-16T02:46:06.411Z,-0.81
2023-03-16T02:48:23.780Z,-0.75
2023-03-16T02:50:26.183Z,-0.60
2023-03-16T02:52:28.695Z,-0.80
2023-03-16T02:54:31.321Z,-1.19
2023-03-16T02:56:33.534Z,-0.89
2023-03-16T02:58:36.017Z,-0.89
2023-03-16T03:00:42.955Z,-0.91
2023-03-16T03:02:46.383Z,-1.11
2023-03-16T03:04:49.057Z,-0.93
2023-03-16T03:06:52.339Z,-0.94
2023-03-16T03:08:54.795Z,-0.91
2023-03-16T03:10:57.385Z,-0.95
2023-03-16T03:13:00.301Z,-0.99
2023-03-16T03:15:03.333Z,-0.92
2023-03-16T03:17:13.625Z,-0.97
2023-03-16T03:19:15.979Z,-0.87
2023-03-16T03:21:18.740Z,-1.27
2023-03-16T03:23:21.246Z,-0.93
2023-03-16T03:25:23.919Z,-1.13
2023-03-16T03:27:28.984Z,-0.97
2023-03-16T03:29:34.951Z,-0.89
2023-03-16T03:31:37.736Z,-1.20
2023-03-16T03:33:40.914Z,-1.24
2023-03-16T03:35:43.691Z,-1.29
2023-03-16T03:37:46.179Z,-1.40
2023-03-16T03:39:50.181Z,-1.30
2023-03-16T03:41:56.556Z,-1.13
2023-03-16T03:44:00.711Z,-1.32
2023-03-16T03:46:04.060Z,-0.99
2023-03-16T03:48:09.157Z,-1.14
2023-03-16T03:50:14.040Z,-1.15
2023-03-16T03:52:39.821Z,-1.19
2023-03-16T03:54:42.622Z,-1.41
2023-03-16T03:56:48.881Z,-1.65
2023-03-16T03:58:52.475Z,-1.31
2023-03-16T04:01:05.894Z,-1.89
2023-03-16T04:03:09.185Z,-1.49
2023-03-16T04:05:19.012Z,-1.95
2023-03-16T04:07:21.462Z,-1.89
2023-03-16T04:09:26.724Z,-1.71
2023-03-16T04:11:29.290Z,-1.68
2023-03-16T04:13:31.933Z,-1.66
2023-03-16T04:15:35.356Z,-1.65
2023-03-16T04:17:44.257Z,-2.04
2023-03-16T04:19:48.073Z,-1.89
2023-03-16T04:21:52.718Z,-1.58
2023-03-16T04:23:55.848Z,-1.93
2023-03-16T04:26:05.998Z,-1.70
2023-03-16T04:28:08.942Z,-2.02
2023-03-16T04:30:14.871Z,-2.06
2023-03-16T04:32:22.545Z,-2.05
2023-03-16T04:34:25.234Z,-1.96
2023-03-16T04:36:33.179Z,-1.80
2023-03-16T04:38:36.830Z,-1.92
2023-03-16T04:40:39.564Z,-2.27
2023-03-16T04:42:48.903Z,-2.12
2023-03-16T04:44:56.374Z,-2.01
2023-03-16T04:46:59.634Z,-2.08
2023-03-16T04:49:09.996Z,-2.37
2023-03-16T04:51:14.530Z,-2.01
2023-03-16T04:53:24.364Z,-2.05
2023-03-16T04:55:34.242Z,-2.58
2023-03-16T04:57:37.889Z,-2.44
2023-03-16T04:59:41.857Z,-2.45
2023-03-16T05:02:04.250Z,-2.25
2023-03-16T05:04:07.694Z,-2.47
2023-03-16T05:06:13.086Z,-2.34
2023-03-16T05:08:16.512Z,-2.41
2023-03-16T05:10:22.287Z,-2.78
2023-03-16T05:12:24.626Z,-2.37
2023-03-16T05:14:32.056Z,-2.59
2023-03-16T05:16:46.934Z,-2.16
2023-03-16T05:18:49.436Z,-2.46
2023-03-16T05:20:54.398Z,-2.61
2023-03-16T05:22:57.004Z,-2.61
2023-03-16T05:25:06.213Z,-2.47
2023-03-16T05:27:09.087Z,-2.58
2023-03-16T05:29:11.976Z,-2.28
2023-03-16T05:31:14.432Z,-2.39
2023-03-16T05:33:23.053Z,-2.10
2023-03-16T05:35:31.534Z,-2.21
2023-03-16T05:37:38.608Z,-2.17
2023-03-16T05:39:43.635Z,-2.03
2023-03-16T05:41:46.220Z,-2.00
2023-03-16T05:44:09.452Z,-1.78
2023-03-16T05:46:31.530Z,-1.76
2023-03-16T05:48:36.338Z,-1.43
2023-03-16T05:50:39.882Z,-1.40
2023-03-16T05:52:47.065Z,-1.35
2023-03-16T05:54:55.941Z,-1.05
2023-03-16T05:56:59.389Z,-0.70
2023-03-16T05:59:03.069Z,-0.67
2023-03-16T06:01:07.672Z,-0.50
2023-03-16T06:03:10.151Z,-0.34
2023-03-16T06:05:14.900Z,-0.15
2023-03-16T06:07:19.604Z,0.10
2023-03-16T06:09:22.055Z,0.08
2023-03-16T06:11:24.309Z,0.12
2023-03-16T06:13:26.837Z,0.41
2023-03-16T06:15:30.820Z,0.35
2023-03-16T06:17:37.224Z,0.55
2023-03-16T06:19:39.816Z,0.77
2023-03-16T06:21:43.236Z,0.73
2023-03-16T06:23:47.798Z,1.12
2023-03-16T06:25:55.160Z,0.78
2023-03-16T06:28:00.590Z,1.55
2023-03-16T06:30:03.350Z,1.43
2023-03-16T06:32:05.729Z,1.95
2023-03-16T06:34:08.708Z,2.07
2023-03-16T06:36:12.037Z,2.60
2023-03-16T06:38:20.377Z,2.39
2023-03-16T06:40:38.689Z,2.84
2023-03-16T06:42:41.560Z,2.97
2023-03-16T06:44:47.058Z,2.93
2023-03-16T06:46:49.506Z,3.13
2023-03-16T06:48:52.149Z,3.48
2023-03-16T06:50:55.298Z,3.86
2023-03-16T06:53:02.017Z,3.63
2023-03-16T06:55:08.163Z,3.95
2023-03-16T06:57:14.265Z,4.23
2023-03-16T06:59:16.841Z,4.37
2023-03-16T07:01:19.981Z,4.41
2023-03-16T07:03:22.651Z,4.58
2023-03-16T07:05:31.996Z,4.76
2023-03-16T07:07:35.363Z,4.88
2023-03-16T07:09:41.069Z,5.13
2023-03-16T07:11:45.368Z,5.25
2023-03-16T07:13:48.008Z,5.60
2023-03-16T07:15:52.847Z,5.11
2023-03-16T07:17:56.449Z,5.59
2023-03-16T07:19:59.944Z,5.80
2023-03-16T07:22:04.339Z,5.78
2023-03-16T07:24:11.722Z,5.81
2023-03-16T07:26:16.526Z,6.04
2023-03-16T07:28:27.246Z,6.09
2023-03-16T07:30:31.291Z,6.31
2023-03-16T07:32:34.495Z,6.58
2023-03-16T07:34:37.159Z,6.78
2023-03-16T07:36:40.260Z,6.87
2023-03-16T07:38:42.814Z,7.31
2023-03-16T07:40:46.697Z,7.36
2023-03-16T07:42:55.698Z,7.57
2023-03-16T07:45:05.688Z,7.81
2023-03-16T07:47:13.209Z,7.99
2023-03-16T07:49:17.127Z,7.57
2023-03-16T07:51:21.843Z,7.93
2023-03-16T07:53:25.778Z,8.11
2023-03-16T07:55:41.417Z,7.67
2023-03-16T07:57:48.063Z,8.17
2023-03-16T07:59:53.944Z,8.06
2023-03-16T08:01:56.276Z,8.44
2023-03-16T08:03:58.790Z,8.47
2023-03-16T08:06:01.578Z,8.90
2023-03-16T08:08:04.049Z,8.85
2023-03-16T08:10:09.160Z,9.08
2023-03-16T08:12:19.339Z,9.03
2023-03-16T08:14:22.245Z,8.98
2023-03-16T08:16:38.228Z,9.40
2023-03-16T08:18:42.844Z,9.39
2023-03-16T08:20:45.827Z,9.36
2023-03-16T08:22:49.880Z,9.73
2023-03-16T08:24:58.623Z,9.73
2023-03-16T08:27:01.403Z,9.75
2023-03-16T08:29:05.838Z,9.88
2023-03-16T08:31:14.502Z,10.13
2023-03-16T08:33:31.949Z,10.19
2023-03-16T08:35:36.354Z,10.28
2023-03-16T08:37:39.216Z,10.30
2023-03-16T08:39:42.340Z,10.22
2023-03-16T08:41:48.842Z,10.75
2023-03-16T08:44:08.038Z,10.61
2023-03-16T08:46:12.450Z,10.79
2023-03-16T08:48:23.658Z,11.18
2023-03-16T08:50:28.625Z,11.32
2023-03-16T08:52:32.473Z,11.16
2023-03-16T08:54:34.706Z,11.24
2023-03-16T08:56:37.331Z,11.20
2023-03-16T08:58:42.554Z,11.33
2023-03-16T09:00:46.832Z,11.67
2023-03-16T09:02:49.991Z,11.84
2023-03-16T09:04:53.316Z,11.81
2023-03-16T09:07:09.052Z,11.83
2023-03-16T09:09:12.369Z,11.83
2023-03-16T09:11:19.988Z,11.96
2023-03-16T09:13:22.442Z,11.84
2023-03-16T09:15:24.668Z,11.83
2023-03-16T09:17:27.326Z,12.02
2023-03-16T09:19:37.709Z,12.38
2023-03-16T09:21:51.979Z,12.70
2023-03-16T09:23:55.422Z,12.71
2023-03-16T09:26:00.369Z,12.59
2023-03-16T09:28:02.866Z,12.22
2023-03-16T09:30:07.868Z,12.34
2023-03-16T09:32:10.397Z,12.13
2023-03-16T09:34:12.852Z,11.89
2023-03-16T09:36:15.966Z,11.64
2023-03-16T09:38:20.270Z,12.00
2023-03-16T09:40:28.866Z,11.82
2023-03-16T09:42:41.225Z,11.69
2023-03-16T09:45:34.731Z,12.00
2023-03-16T09:47:39.303Z,12.08
2023-03-16T09:49:48.814Z,12.53
2023-03-16T09:52:01.519Z,12.72
2023-03-16T09:54:15.613Z,12.67
2023-03-16T09:56:29.430Z,12.47
2023-03-16T09:58:33.324Z,12.02
2023-03-16T10:00:42.307Z,11.35
2023-03-16T10:03:14.225Z,11.60
2023-03-16T10:05:21.010Z,11.31
2023-03-16T10:07:43.843Z,11.33
2023-03-16T10:10:03.269Z,11.84
2023-03-16T10:12:09.462Z,11.50
2023-03-16T10:14:34.457Z,11.33
2023-03-16T10:17:12.003Z,12.06
2023-03-16T10:21:45.539Z,11.69
2023-03-16T10:23:49.925Z,11.51
2023-03-16T10:25:55.170Z,11.52
2023-03-16T10:27:57.955Z,10.95
2023-03-16T10:30:02.815Z,10.96
2023-03-16T10:32:17.557Z,10.81
2023-03-16T10:34:20.558Z,11.00
2023-03-16T10:36:33.807Z,11.18
2023-03-16T10:38:55.611Z,11.74
2023-03-16T10:40:58.380Z,12.13
2023-03-16T10:43:21.277Z,12.79
2023-03-16T10:45:32.323Z,12.59
2023-03-16T10:47:35.006Z,12.23
2023-03-16T10:49:42.624Z,11.70
2023-03-16T10:51:45.492Z,11.44
2023-03-16T10:53:47.994Z,11.29
2023-03-16T10:55:51.689Z,11.34
2023-03-16T10:57:56.870Z,11.47
2023-03-16T11:00:10.160Z,11.90
2023-03-16T11:02:21.158Z,12.22
2023-03-16T11:04:24.675Z,12.16
2023-03-16T11:06:32.828Z,12.03
2023-03-16T11:08:39.304Z,11.82
2023-03-16T11:10:55.681Z,11.39
2023-03-16T11:13:09.024Z,11.37
2023-03-16T11:15:25.247Z,11.65
2023-03-16T11:17:40.138Z,11.34
2023-03-16T11:20:17.801Z,11.39
2023-03-16T11:22:24.934Z,11.02
2023-03-16T11:24:45.946Z,11.30
2023-03-16T11:26:55.166Z,11.20
2023-03-16T11:29:09.793Z,11.46
2023-03-16T11:31:20.707Z,11.66
2023-03-16T11:33:27.726Z,11.18
2023-03-16T11:35:59.234Z,11.75
2023-03-16T11:38:10.756Z,12.34
2023-03-16T11:40:33.437Z,12.64
2023-03-16T11:42:44.657Z,12.59
2023-03-16T11:45:23.423Z,12.73
2023-03-16T11:47:52.066Z,12.71
2023-03-16T11:50:21.864Z,12.64
2023-03-16T11:52:36.283Z,12.73
2023-03-16T11:55:04.019Z,12.73
2023-03-16T11:57:40.363Z,13.27
2023-03-16T12:00:13.378Z,13.33
2023-03-16T12:02:40.851Z,13.48
2023-03-16T12:05:22.757Z,13.93
2023-03-16T12:07:34.035Z,14.11
2023-03-16T12:10:14.250Z,14.29
2023-03-16T12:12:58.760Z,14.17
2023-03-16T12:15:25.815Z,13.95
2023-03-16T12:17:33.298Z,13.05
2023-03-16T12:19:44.887Z,13.05
2023-03-16T12:21:55.353Z,12.59
2023-03-16T12:24:04.663Z,12.97
2023-03-16T12:26:09.113Z,13.24
2023-03-16T12:28:25.869Z,13.50
2023-03-16T12:30:49.751Z,13.89
2023-03-16T12:33:30.685Z,14.27
2023-03-16T12:35:52.156Z,14.19
2023-03-16T12:37:54.772Z,13.86
2023-03-16T12:40:08.875Z,13.78
2023-03-16T12:42:32.245Z,14.10
2023-03-16T12:45:03.017Z,13.85
2023-03-16T12:47:17.617Z,13.75
2023-03-16T12:49:21.537Z,13.57
2023-03-16T12:51:41.751Z,13.42
2023-03-16T12:53:59.080Z,12.81
2023-03-16T12:56:09.309Z,13.24
2023-03-16T12:58:13.050Z,13.22
2023-03-16T13:00:16.742Z,13.08
2023-03-16T13:02:25.357Z,13.03
2023-03-16T13:04:39.383Z,12.53
2023-03-16T13:06:50.817Z,12.70
2023-03-16T13:09:00.386Z,12.87
2023-03-16T13:11:13.156Z,13.09
2023-03-16T13:13:17.431Z,13.37
2023-03-16T13:15:25.886Z,13.71
2023-03-16T13:17:32.287Z,13.65
2023-03-16T13:19:38.235Z,13.65
2023-03-16T13:21:42.842Z,14.16
2023-03-16T13:23:58.949Z,14.26
2023-03-16T13:26:38.493Z,14.26
2023-03-16T13:28:41.682Z,14.28
2023-03-16T13:30:49.400Z,14.27
2023-03-16T13:32:59.944Z,14.15
2023-03-16T13:35:06.308Z,14.48
2023-03-16T13:37:15.431Z,14.43
2023-03-16T13:39:23.786Z,14.74
2023-03-16T13:41:26.580Z,14.84
2023-03-16T13:43:33.236Z,15.10
2023-03-16T13:45:39.479Z,15.10
2023-03-16T13:47:48.654Z,14.94
2023-03-16T13:49:59.373Z,15.02
2023-03-16T13:52:04.445Z,14.85
2023-03-16T13:54:24.376Z,14.80
2023-03-16T13:56:29.539Z,14.64
2023-03-16T13:58:36.813Z,14.63
2023-03-16T14:00:45.880Z,14.20
2023-03-16T14:02:53.806Z,13.85
2023-03-16T14:04:56.051Z,13.72
2023-03-16T14:07:03.850Z,13.60
2023-03-16T14:09:15.392Z,13.91
2023-03-16T14:11:17.905Z,13.71
2023-03-16T14:13:29.353Z,14.20
2023-03-16T14:15:32.421Z,14.01
2023-03-16T14:17:34.784Z,14.30
2023-03-16T14:19:49.695Z,14.17
2023-03-16T14:21:52.631Z,14.23
2023-03-16T14:23:59.563Z,14.09
2023-03-16T14:26:06.336Z,14.00
2023-03-16T14:28:09.256Z,14.37
2023-03-16T14:30:18.842Z,14.43
2023-03-16T14:32:28.796Z,14.21
2023-03-16T14:34:41.611Z,13.93
2023-03-16T14:36:43.975Z,14.10
2023-03-16T14:38:49.072Z,13.84
2023-03-16T14:40:56.948Z,13.38
2023-03-16T14:43:04.092Z,13.30
2023-03-16T14:45:14.346Z,13.11
2023-03-16T14:47:31.367Z,13.02
2023-03-16T14:49:37.769Z,12.56
2023-03-16T14:51:41.798Z,12.63
2023-03-16T14:53:45.614Z,12.68
2023-03-16T14:55:48.308Z,12.47
2023-03-16T14:57:51.805Z,12.34
2023-03-16T14:59:55.024Z,12.52
2023-03-16T15:01:58.339Z,12.51
2023-03-16T15:04:01.820Z,12.56
2023-03-16T15:06:04.144Z,12.67
2023-03-16T15:08:26.932Z,12.29
2023-03-16T15:10:33.906Z,12.03
2023-03-16T15:12:38.419Z,12.26
2023-03-16T15:15:00.257Z,12.22
2023-03-16T15:17:03.214Z,12.19
2023-03-16T15:19:05.868Z,12.27
2023-03-16T15:21:21.615Z,12.20
2023-03-16T15:23:24.305Z,12.18
2023-03-16T15:25:36.756Z,12.55
2023-03-16T15:27:39.388Z,12.04
2023-03-16T15:29:42.072Z,12.14
2023-03-16T15:31:44.426Z,12.14
2023-03-16T15:33:47.066Z,11.87
2023-03-16T15:35:52.204Z,12.28
2023-03-16T15:37:55.029Z,11.94
2023-03-16T15:39:57.524Z,11.76
2023-03-16T15:42:00.100Z,11.81
2023-03-16T15:44:03.516Z,11.63
2023-03-16T15:46:07.080Z,11.70
2023-03-16T15:48:11.155Z,11.43
2023-03-16T15:50:16.524Z,11.44
2023-03-16T15:52:34.427Z,11.56
2023-03-16T15:54:38.155Z,11.18
2023-03-16T15:56:53.642Z,11.17
2023-03-16T15:59:02.358Z,11.16
2023-03-16T16:01:07.338Z,10.89
2023-03-16T16:03:14.211Z,10.39
2023-03-16T16:05:17.126Z,10.49
2023-03-16T16:07:25.922Z,10.63
2023-03-16T16:09:29.005Z,10.20
2023-03-16T16:11:31.620Z,10.62
2023-03-16T16:13:44.810Z,10.52
2023-03-16T16:15:48.451Z,10.28
2023-03-16T16:18:16.323Z,10.26
2023-03-16T16:20:23.896Z,10.31
2023-03-16T16:22:27.080Z,10.21
2023-03-16T16:24:29.872Z,9.92
2023-03-16T16:26:55.899Z,9.68
2023-03-16T16:29:01.304Z,9.80
2023-03-16T16:31:14.163Z,9.76
2023-03-16T16:33:27.041Z,9.92
2023-03-16T16:35:29.568Z,9.28
2023-03-16T16:37:31.939Z,9.48
2023-03-16T16:39:34.182Z,9.31
2023-03-16T16:41:37.910Z,9.26
2023-03-16T16:43:47.182Z,9.25
2023-03-16T16:45:50.029Z,9.36
2023-03-16T16:47:55.970Z,9.10
2023-03-16T16:49:58.442Z,8.92
2023-03-16T16:52:02.163Z,8.36
2023-03-16T16:54:15.345Z,8.62
2023-03-16T16:56:46.730Z,7.97
2023-03-16T16:58:49.804Z,8.02
2023-03-16T17:00:55.935Z,8.03
2023-03-16T17:02:59.237Z,7.53
2023-03-16T17:05:01.610Z,7.44
2023-03-16T17:07:06.719Z,7.22
2023-03-16T17:09:09.405Z,7.22
2023-03-16T17:11:23.028Z,6.93
2023-03-16T17:13:47.070Z,6.62
2023-03-16T17:15:49.670Z,6.46
2023-03-16T17:17:53.874Z,5.88
2023-03-16T17:19:56.342Z,6.15
2023-03-16T17:21:58.919Z,5.84
2023-03-16T17:24:01.301Z,5.81
2023-03-16T17:26:24.413Z,5.76
2023-03-16T17:28:30.378Z,4.91
2023-03-16T17:30:32.872Z,4.70
2023-03-16T17:32:35.229Z,4.75
2023-03-16T17:34:37.846Z,4.53
2023-03-16T17:36:40.525Z,4.52
2023-03-16T17:38:46.013Z,4.13
2023-03-16T17:40:55.796Z,3.82
2023-03-16T17:42:58.184Z,3.89
2023-03-16T17:45:01.150Z,4.04
2023-03-16T17:47:04.470Z,3.95
2023-03-16T17:49:14.750Z,3.99
2023-03-16T17:51:17.987Z,3.53
2023-03-16T17:53:26.617Z,3.73
2023-03-16T17:55:29.015Z,3.02
2023-03-16T17:57:33.705Z,3.34
2023-03-16T17:59:36.566Z,3.07
2023-03-16T18:01:39.350Z,3.59
2023-03-16T18:03:44.394Z,2.85
2023-03-16T18:05:46.872Z,2.95
2023-03-16T18:07:50.132Z,2.52
2023-03-16T18:09:53.255Z,2.66
2023-03-16T18:11:56.339Z,2.16
2023-03-16T18:13:59.206Z,2.57
2023-03-16T18:16:02.993Z,2.48
2023-03-16T18:18:09.440Z,2.50
2023-03-16T18:20:28.424Z,2.82
2023-03-16T18:22:31.236Z,2.32
2023-03-16T18:24:34.228Z,2.27
2023-03-16T18:26:37.652Z,2.23
2023-03-16T18:28:40.089Z,1.67
2023-03-16T18:30:47.990Z,1.60
2023-03-16T18:32:51.982Z,1.77
2023-03-16T18:34:54.891Z,1.67
2023-03-16T18:36:59.919Z,1.61
2023-03-16T18:39:05.993Z,1.46
2023-03-16T18:41:36.681Z,1.72
2023-03-16T18:43:39.342Z,1.59
2023-03-16T18:45:42.249Z,1.48
2023-03-16T18:47:51.224Z,0.77
2023-03-16T18:49:54.282Z,1.09
2023-03-16T18:51:57.787Z,1.00
2023-03-16T18:54:00.346Z,0.61
2023-03-16T18:56:03.637Z,0.97
2023-03-16T18:58:17.341Z,1.04
2023-03-16T19:00:22.698Z,1.05
2023-03-16T19:02:39.277Z,1.17
2023-03-16T19:04:41.572Z,0.83
2023-03-16T19:06:46.761Z,0.97
2023-03-16T19:08:49.217Z,0.32
2023-03-16T19:10:57.518Z,0.17
2023-03-16T19:13:01.346Z,0.47
2023-03-16T19:15:18.798Z,0.41
2023-03-16T19:17:21.508Z,0.14
2023-03-16T19:19:24.550Z,0.22
2023-03-16T19:21:27.390Z,0.05
2023-03-16T19:23:36.653Z,0.26
2023-03-16T19:25:41.528Z,0.53
2023-03-16T19:27:45.961Z,0.21
2023-03-16T19:29:51.577Z,0.33
2023-03-16T19:31:57.367Z,0.26
2023-03-16T19:34:00.148Z,0.11
2023-03-16T19:36:02.697Z,-0.37
2023-03-16T19:38:05.113Z,-0.04
2023-03-16T19:40:07.951Z,-0.15
2023-03-16T19:42:23.537Z,-0.39
2023-03-16T19:44:29.131Z,-0.12
2023-03-16T19:46:31.512Z,-0.47
2023-03-16T19:48:34.673Z,-0.87
2023-03-16T19:50:37.171Z,-0.54
2023-03-16T19:52:39.881Z,-0.47
2023-03-16T19:54:44.394Z,-0.46
2023-03-16T19:56:46.809Z,-0.78
2023-03-16T19:58:54.940Z,-0.33
2023-03-16T20:00:59.646Z,-0.83
2023-03-16T20:03:02.121Z,-0.83
2023-03-16T20:05:06.009Z,-0.40
2023-03-16T20:07:16.652Z,-0.66
2023-03-16T20:09:19.113Z,-0.81
2023-03-16T20:11:31.899Z,-0.63
2023-03-16T20:13:35.591Z,-0.76
2023-03-16T20:15:38.394Z,-0.81
2023-03-16T20:17:43.466Z,-1.16
2023-03-16T20:19:46.075Z,-1.00
2023-03-16T20:21:49.487Z,-0.92
2023-03-16T20:23:53.479Z,-1.00
2023-03-16T20:26:02.151Z,-1.19
2023-03-16T20:28:14.613Z,-1.39
2023-03-16T20:30:19.069Z,-1.22
2023-03-16T20:32:24.758Z,-0.74
2023-03-16T20:34:30.326Z,-1.03
2023-03-16T20:36:32.993Z,-1.05
2023-03-16T20:38:35.708Z,-1.75
2023-03-16T20:40:39.280Z,-1.45
2023-03-16T20:42:42.465Z,-1.64
2023-03-16T20:44:45.182Z,-1.32
2023-03-16T20:46:48.030Z,-1.42
2023-03-16T20:48:52.230Z,-1.55
2023-03-16T20:50:56.346Z,-1.01
2023-03-16T20:52:58.687Z,-1.43
2023-03-16T20:55:01.123Z,-1.13
2023-03-16T20:57:03.541Z,-1.24
2023-03-16T20:59:06.165Z,-1.02
2023-03-16T21:01:17.670Z,-0.93
2023-03-16T21:03:25.485Z,-0.91
2023-03-16T21:05:29.920Z,-1.42
2023-03-16T21:07:33.007Z,-1.03
2023-03-16T21:09:35.445Z,-1.29
2023-03-16T21:11:39.157Z,-1.26
2023-03-16T21:13:42.578Z,-1.27
2023-03-16T21:15:45.628Z,-1.30
2023-03-16T21:17:52.354Z,-1.74
2023-03-16T21:19:55.946Z,-1.43
2023-03-16T21:21:58.244Z,-1.39
2023-03-16T21:24:03.268Z,-1.36
2023-03-16T21:26:06.684Z,-1.00
2023-03-16T21:28:12.691Z,-1.36
2023-03-16T21:30:21.166Z,-1.07
2023-03-16T21:32:26.637Z,-1.46
2023-03-16T21:34:35.774Z,-1.45
2023-03-16T21:36:38.052Z,-1.43
2023-03-16T21:38:40.667Z,-1.45
2023-03-16T21:40:44.592Z,-1.59
2023-03-16T21:42:47.270Z,-1.65
2023-03-16T21:44:49.662Z,-1.81
2023-03-16T21:46:53.060Z,-2.22
2023-03-16T21:48:55.990Z,-1.95
2023-03-16T21:50:58.234Z,-1.74
2023-03-16T21:53:01.104Z,-1.85
2023-03-16T21:55:06.646Z,-1.71
2023-03-16T21:57:15.421Z,-1.85
2023-03-16T21:59:17.708Z,-2.23
2023-03-16T22:01:27.867Z,-2.04
2023-03-16T22:03:49.684Z,-1.58
2023-03-16T22:05:54.124Z,-2.26
2023-03-16T22:07:58.299Z,-1.70
2023-03-16T22:10:00.585Z,-2.01
2023-03-16T22:12:02.990Z,-2.10
2023-03-16T22:14:05.332Z,-1.88
2023-03-16T22:16:15.247Z,-1.78
2023-03-16T22:18:31.782Z,-1.58
2023-03-16T22:20:34.630Z,-1.87
2023-03-16T22:22:36.744Z,-1.93
2023-03-16T22:24:38.911Z,-2.41
2023-03-16T22:26:41.598Z,-2.00
2023-03-16T22:28:44.137Z,-1.88
2023-03-16T22:30:47.367Z,-1.94
2023-03-16T22:32:56.014Z,-1.64
2023-03-16T22:34:58.409Z,-1.72
2023-03-16T22:37:02.194Z,-2.21
2023-03-16T22:39:09.256Z,-2.00
2023-03-16T22:41:16.116Z,-1.97
2023-03-16T22:43:23.090Z,-1.82
2023-03-16T22:45:28.569Z,-2.02
2023-03-16T22:47:37.137Z,-2.12
2023-03-16T22:49:39.558Z,-2.27
2023-03-16T22:51:42.108Z,-2.51
2023-03-16T22:53:47.292Z,-2.10
2023-03-16T22:55:51.727Z,-2.34
2023-03-16T22:58:03.042Z,-2.47
2023-03-16T23:00:08.368Z,-1.96
2023-03-16T23:02:17.675Z,-2.10
2023-03-16T23:04:23.426Z,-1.85
2023-03-16T23:06:28.745Z,-1.96
2023-03-16T23:08:31.207Z,-1.98
2023-03-16T23:10:33.467Z,-2.01
2023-03-16T23:12:36.279Z,-1.86
2023-03-16T23:14:40.172Z,-1.80
2023-03-16T23:16:44.462Z,-1.60
2023-03-16T23:18:47.916Z,-2.14
2023-03-16T23:29:28.948Z,-2.15
2023-03-16T23:31:31.776Z,-2.13
2023-03-16T23:35:05.534Z,-1.63
2023-03-16T23:37:08.991Z,-2.27
2023-03-16T23:39:11.583Z,-2.01
2023-03-16T23:41:17.511Z,-2.23
2023-03-16T23:43:20.532Z,-2.24
2023-03-16T23:45:40.115Z,-1.90
2023-03-16T23:47:42.833Z,-2.39
2023-03-16T23:49:54.280Z,-2.42
2023-03-16T23:52:06.616Z,-2.01
2023-03-16T23:54:24.803Z,-2.48
2023-03-16T23:56:27.262Z,-2.90
2023-03-16T23:58:29.891Z,-2.66
